sensor_id;sensor_type;location;lat;lon;timestamp;temperature;humidity
15481;DHT22;7842;50.904;6.670;2024-03-29T00:00:33;8.50;99.90
15481;DHT22;7842;50.904;6.670;2024-03-29T00:03:00;8.50;99.90
15481;DHT22;7842;50.904;6.670;2024-03-29T00:05:25;8.50;99.90
15481;DHT22;7842;50.904;6.670;2024-03-29T00:07:51;8.50;99.90
15481;DHT22;7842;50.904;6.670;2024-03-29T00:10:16;8.50;99.90
15481;DHT22;7842;50.904;6.670;2024-03-29T00:12:42;8.50;99.90
15481;DHT22;7842;50.904;6.670;2024-03-29T00:15:08;8.50;99.90
15481;DHT22;7842;50.904;6.670;2024-03-29T00:17:33;8.50;99.90
15481;DHT22;7842;50.904;6.670;2024-03-29T00:19:59;8.50;99.90
15481;DHT22;7842;50.904;6.670;2024-03-29T00:22:25;8.50;99.90
15481;DHT22;7842;50.904;6.670;2024-03-29T00:24:50;8.50;99.90
15481;DHT22;7842;50.904;6.670;2024-03-29T00:27:16;8.60;99.90
15481;DHT22;7842;50.904;6.670;2024-03-29T00:29:41;8.60;99.90
15481;DHT22;7842;50.904;6.670;2024-03-29T00:32:09;8.60;99.90
15481;DHT22;7842;50.904;6.670;2024-03-29T00:34:34;8.60;99.90
15481;DHT22;7842;50.904;6.670;2024-03-29T00:37:00;8.60;99.90
15481;DHT22;7842;50.904;6.670;2024-03-29T00:39:26;8.60;99.90
15481;DHT22;7842;50.904;6.670;2024-03-29T00:41:51;8.70;99.90
15481;DHT22;7842;50.904;6.670;2024-03-29T00:44:17;8.70;99.90
15481;DHT22;7842;50.904;6.670;2024-03-29T00:46:42;8.70;99.90
15481;DHT22;7842;50.904;6.670;2024-03-29T00:49:08;8.70;99.90
15481;DHT22;7842;50.904;6.670;2024-03-29T00:51:34;8.80;99.90
15481;DHT22;7842;50.904;6.670;2024-03-29T00:53:59;8.80;99.90
15481;DHT22;7842;50.904;6.670;2024-03-29T00:56:25;8.80;99.90
15481;DHT22;7842;50.904;6.670;2024-03-29T00:58:50;8.80;99.90
15481;DHT22;7842;50.904;6.670;2024-03-29T01:01:16;8.80;99.90
15481;DHT22;7842;50.904;6.670;2024-03-29T01:03:41;8.80;99.90
15481;DHT22;7842;50.904;6.670;2024-03-29T01:06:07;8.90;99.90
15481;DHT22;7842;50.904;6.670;2024-03-29T01:08:33;8.90;99.90
15481;DHT22;7842;50.904;6.670;2024-03-29T01:10:58;8.90;99.90
15481;DHT22;7842;50.904;6.670;2024-03-29T01:13:24;9.00;99.90
15481;DHT22;7842;50.904;6.670;2024-03-29T01:15:49;8.90;99.90
15481;DHT22;7842;50.904;6.670;2024-03-29T01:18:15;9.00;99.90
15481;DHT22;7842;50.904;6.670;2024-03-29T01:20:41;9.00;99.90
15481;DHT22;7842;50.904;6.670;2024-03-29T01:23:07;9.10;99.90
15481;DHT22;7842;50.904;6.670;2024-03-29T01:25:33;9.10;99.90
15481;DHT22;7842;50.904;6.670;2024-03-29T01:27:59;9.10;99.90
15481;DHT22;7842;50.904;6.670;2024-03-29T01:30:24;9.10;99.90
15481;DHT22;7842;50.904;6.670;2024-03-29T01:32:52;9.10;99.90
15481;DHT22;7842;50.904;6.670;2024-03-29T01:35:18;9.10;99.90
15481;DHT22;7842;50.904;6.670;2024-03-29T01:37:43;9.10;99.90
15481;DHT22;7842;50.904;6.670;2024-03-29T01:40:09;9.20;99.90
15481;DHT22;7842;50.904;6.670;2024-03-29T01:42:36;9.10;99.90
15481;DHT22;7842;50.904;6.670;2024-03-29T01:45:01;9.10;99.90
15481;DHT22;7842;50.904;6.670;2024-03-29T01:47:27;9.10;99.90
15481;DHT22;7842;50.904;6.670;2024-03-29T01:49:52;9.10;99.90
15481;DHT22;7842;50.904;6.670;2024-03-29T01:52:19;9.10;99.90
15481;DHT22;7842;50.904;6.670;2024-03-29T01:54:45;9.10;99.90
15481;DHT22;7842;50.904;6.670;2024-03-29T01:57:13;9.10;99.90
15481;DHT22;7842;50.904;6.670;2024-03-29T01:59:40;9.10;99.90
15481;DHT22;7842;50.904;6.670;2024-03-29T02:02:09;9.00;99.90
15481;DHT22;7842;50.904;6.670;2024-03-29T02:04:36;9.00;99.90
15481;DHT22;7842;50.904;6.670;2024-03-29T02:07:03;9.00;99.90
15481;DHT22;7842;50.904;6.670;2024-03-29T02:09:29;9.10;99.90
15481;DHT22;7842;50.904;6.670;2024-03-29T02:11:55;9.10;99.90
15481;DHT22;7842;50.904;6.670;2024-03-29T02:14:20;9.20;99.90
15481;DHT22;7842;50.904;6.670;2024-03-29T02:16:46;9.20;99.90
15481;DHT22;7842;50.904;6.670;2024-03-29T02:19:11;9.20;99.90
15481;DHT22;7842;50.904;6.670;2024-03-29T02:21:41;9.20;99.90
15481;DHT22;7842;50.904;6.670;2024-03-29T02:24:08;9.20;99.90
15481;DHT22;7842;50.904;6.670;2024-03-29T02:26:35;9.20;99.90
15481;DHT22;7842;50.904;6.670;2024-03-29T02:29:07;9.20;99.90
15481;DHT22;7842;50.904;6.670;2024-03-29T02:31:33;9.30;99.90
15481;DHT22;7842;50.904;6.670;2024-03-29T02:33:58;9.30;99.90
15481;DHT22;7842;50.904;6.670;2024-03-29T02:36:24;9.30;99.90
15481;DHT22;7842;50.904;6.670;2024-03-29T02:38:50;9.30;99.90
15481;DHT22;7842;50.904;6.670;2024-03-29T02:41:15;9.30;99.90
15481;DHT22;7842;50.904;6.670;2024-03-29T02:43:41;9.30;99.90
15481;DHT22;7842;50.904;6.670;2024-03-29T02:46:07;9.20;99.90
15481;DHT22;7842;50.904;6.670;2024-03-29T02:48:32;9.20;99.90
15481;DHT22;7842;50.904;6.670;2024-03-29T02:50:58;9.30;99.90
15481;DHT22;7842;50.904;6.670;2024-03-29T02:53:24;9.30;99.90
15481;DHT22;7842;50.904;6.670;2024-03-29T02:55:49;9.40;99.90
15481;DHT22;7842;50.904;6.670;2024-03-29T02:58:15;9.40;99.90
15481;DHT22;7842;50.904;6.670;2024-03-29T03:00:40;9.40;99.90
15481;DHT22;7842;50.904;6.670;2024-03-29T03:03:06;9.30;99.90
15481;DHT22;7842;50.904;6.670;2024-03-29T03:05:31;9.30;99.90
15481;DHT22;7842;50.904;6.670;2024-03-29T03:07:58;9.20;99.90
15481;DHT22;7842;50.904;6.670;2024-03-29T03:10:46;9.10;99.90
15481;DHT22;7842;50.904;6.670;2024-03-29T03:13:28;9.00;99.90
15481;DHT22;7842;50.904;6.670;2024-03-29T03:15:54;9.00;99.90
15481;DHT22;7842;50.904;6.670;2024-03-29T03:18:20;9.00;99.90
15481;DHT22;7842;50.904;6.670;2024-03-29T03:20:53;9.00;99.90
15481;DHT22;7842;50.904;6.670;2024-03-29T03:23:19;9.00;99.90
15481;DHT22;7842;50.904;6.670;2024-03-29T03:25:53;9.00;99.90
15481;DHT22;7842;50.904;6.670;2024-03-29T03:28:18;8.90;99.90
15481;DHT22;7842;50.904;6.670;2024-03-29T03:30:44;8.90;99.90
15481;DHT22;7842;50.904;6.670;2024-03-29T03:33:10;8.90;99.90
15481;DHT22;7842;50.904;6.670;2024-03-29T03:35:35;8.80;99.90
15481;DHT22;7842;50.904;6.670;2024-03-29T03:38:01;8.80;99.90
15481;DHT22;7842;50.904;6.670;2024-03-29T03:40:26;8.80;99.90
15481;DHT22;7842;50.904;6.670;2024-03-29T03:42:52;8.80;99.90
15481;DHT22;7842;50.904;6.670;2024-03-29T03:45:18;8.80;99.90
15481;DHT22;7842;50.904;6.670;2024-03-29T03:47:43;8.80;99.90
15481;DHT22;7842;50.904;6.670;2024-03-29T03:50:09;8.80;99.90
15481;DHT22;7842;50.904;6.670;2024-03-29T03:52:35;8.80;99.90
15481;DHT22;7842;50.904;6.670;2024-03-29T03:55:00;8.80;99.90
15481;DHT22;7842;50.904;6.670;2024-03-29T03:57:26;8.90;99.90
15481;DHT22;7842;50.904;6.670;2024-03-29T03:59:51;8.90;99.90
15481;DHT22;7842;50.904;6.670;2024-03-29T04:02:17;8.90;99.90
15481;DHT22;7842;50.904;6.670;2024-03-29T04:04:42;8.90;99.90
15481;DHT22;7842;50.904;6.670;2024-03-29T04:07:11;8.90;99.90
15481;DHT22;7842;50.904;6.670;2024-03-29T04:09:37;8.90;99.90
15481;DHT22;7842;50.904;6.670;2024-03-29T04:12:03;8.90;99.90
15481;DHT22;7842;50.904;6.670;2024-03-29T04:14:28;8.90;99.90
15481;DHT22;7842;50.904;6.670;2024-03-29T04:16:54;8.90;99.90
15481;DHT22;7842;50.904;6.670;2024-03-29T04:19:20;8.90;99.90
15481;DHT22;7842;50.904;6.670;2024-03-29T04:21:45;8.80;99.90
15481;DHT22;7842;50.904;6.670;2024-03-29T04:24:11;8.80;99.90
15481;DHT22;7842;50.904;6.670;2024-03-29T04:26:36;8.80;99.90
15481;DHT22;7842;50.904;6.670;2024-03-29T04:29:03;8.80;99.90
15481;DHT22;7842;50.904;6.670;2024-03-29T04:31:29;8.80;99.90
15481;DHT22;7842;50.904;6.670;2024-03-29T04:33:55;8.80;99.90
15481;DHT22;7842;50.904;6.670;2024-03-29T04:36:20;8.80;99.90
15481;DHT22;7842;50.904;6.670;2024-03-29T04:38:46;8.80;99.90
15481;DHT22;7842;50.904;6.670;2024-03-29T04:41:12;8.80;99.90
15481;DHT22;7842;50.904;6.670;2024-03-29T04:43:39;8.80;99.90
15481;DHT22;7842;50.904;6.670;2024-03-29T04:46:10;8.80;99.90
15481;DHT22;7842;50.904;6.670;2024-03-29T04:48:37;8.80;99.90
15481;DHT22;7842;50.904;6.670;2024-03-29T04:51:03;8.80;99.90
15481;DHT22;7842;50.904;6.670;2024-03-29T04:53:28;8.80;99.90
15481;DHT22;7842;50.904;6.670;2024-03-29T04:55:58;8.70;99.90
15481;DHT22;7842;50.904;6.670;2024-03-29T04:58:24;8.70;99.90
15481;DHT22;7842;50.904;6.670;2024-03-29T05:00:51;8.70;99.90
15481;DHT22;7842;50.904;6.670;2024-03-29T05:03:17;8.70;99.90
15481;DHT22;7842;50.904;6.670;2024-03-29T05:05:44;8.70;99.90
15481;DHT22;7842;50.904;6.670;2024-03-29T05:08:10;8.70;99.90
15481;DHT22;7842;50.904;6.670;2024-03-29T05:10:35;8.70;99.90
15481;DHT22;7842;50.904;6.670;2024-03-29T05:13:01;8.70;99.90
15481;DHT22;7842;50.904;6.670;2024-03-29T05:15:27;8.60;99.90
15481;DHT22;7842;50.904;6.670;2024-03-29T05:17:53;8.70;99.90
15481;DHT22;7842;50.904;6.670;2024-03-29T05:20:21;8.70;99.90
15481;DHT22;7842;50.904;6.670;2024-03-29T05:22:47;8.70;99.90
15481;DHT22;7842;50.904;6.670;2024-03-29T05:25:12;8.70;99.90
15481;DHT22;7842;50.904;6.670;2024-03-29T05:27:38;8.70;99.90
15481;DHT22;7842;50.904;6.670;2024-03-29T05:30:04;8.70;99.90
15481;DHT22;7842;50.904;6.670;2024-03-29T05:32:30;8.70;99.90
15481;DHT22;7842;50.904;6.670;2024-03-29T05:34:56;8.70;99.90
15481;DHT22;7842;50.904;6.670;2024-03-29T05:37:22;8.70;99.90
15481;DHT22;7842;50.904;6.670;2024-03-29T05:39:50;8.70;99.90
15481;DHT22;7842;50.904;6.670;2024-03-29T05:42:25;8.70;99.90
15481;DHT22;7842;50.904;6.670;2024-03-29T05:44:50;8.70;99.90
15481;DHT22;7842;50.904;6.670;2024-03-29T05:47:16;8.70;99.90
15481;DHT22;7842;50.904;6.670;2024-03-29T05:49:41;8.70;99.90
15481;DHT22;7842;50.904;6.670;2024-03-29T05:52:07;8.70;99.90
15481;DHT22;7842;50.904;6.670;2024-03-29T05:54:33;8.70;99.90
15481;DHT22;7842;50.904;6.670;2024-03-29T05:56:58;8.70;99.90
15481;DHT22;7842;50.904;6.670;2024-03-29T05:59:24;8.80;99.90
15481;DHT22;7842;50.904;6.670;2024-03-29T06:01:49;8.80;99.90
15481;DHT22;7842;50.904;6.670;2024-03-29T06:04:15;8.80;99.90
15481;DHT22;7842;50.904;6.670;2024-03-29T06:06:44;8.80;99.90
15481;DHT22;7842;50.904;6.670;2024-03-29T06:09:10;8.80;99.90
15481;DHT22;7842;50.904;6.670;2024-03-29T06:11:36;8.90;99.90
15481;DHT22;7842;50.904;6.670;2024-03-29T06:14:01;8.90;99.90
15481;DHT22;7842;50.904;6.670;2024-03-29T06:16:30;9.00;99.90
15481;DHT22;7842;50.904;6.670;2024-03-29T06:19:15;9.10;99.90
15481;DHT22;7842;50.904;6.670;2024-03-29T06:21:40;9.10;99.90
15481;DHT22;7842;50.904;6.670;2024-03-29T06:24:11;9.20;99.90
15481;DHT22;7842;50.904;6.670;2024-03-29T06:26:42;9.20;99.90
15481;DHT22;7842;50.904;6.670;2024-03-29T06:29:08;9.20;99.90
15481;DHT22;7842;50.904;6.670;2024-03-29T06:31:36;9.30;99.90
15481;DHT22;7842;50.904;6.670;2024-03-29T06:34:02;9.40;99.90
15481;DHT22;7842;50.904;6.670;2024-03-29T06:36:28;9.50;99.90
15481;DHT22;7842;50.904;6.670;2024-03-29T06:38:55;9.50;99.90
15481;DHT22;7842;50.904;6.670;2024-03-29T06:41:21;9.60;99.90
15481;DHT22;7842;50.904;6.670;2024-03-29T06:43:47;9.60;99.90
15481;DHT22;7842;50.904;6.670;2024-03-29T06:46:14;9.70;99.90
15481;DHT22;7842;50.904;6.670;2024-03-29T06:48:40;9.70;99.90
15481;DHT22;7842;50.904;6.670;2024-03-29T06:51:06;9.80;99.90
15481;DHT22;7842;50.904;6.670;2024-03-29T06:53:32;9.90;99.90
15481;DHT22;7842;50.904;6.670;2024-03-29T06:56:00;9.90;99.90
15481;DHT22;7842;50.904;6.670;2024-03-29T06:58:26;10.00;99.90
15481;DHT22;7842;50.904;6.670;2024-03-29T07:00:52;10.10;99.90
15481;DHT22;7842;50.904;6.670;2024-03-29T07:03:18;10.10;99.90
15481;DHT22;7842;50.904;6.670;2024-03-29T07:05:46;10.00;99.90
15481;DHT22;7842;50.904;6.670;2024-03-29T07:08:12;10.00;99.90
15481;DHT22;7842;50.904;6.670;2024-03-29T07:10:38;10.10;99.90
15481;DHT22;7842;50.904;6.670;2024-03-29T07:13:06;10.10;99.90
15481;DHT22;7842;50.904;6.670;2024-03-29T07:15:31;10.20;99.90
15481;DHT22;7842;50.904;6.670;2024-03-29T07:17:57;10.30;99.90
15481;DHT22;7842;50.904;6.670;2024-03-29T07:20:25;10.30;99.90
15481;DHT22;7842;50.904;6.670;2024-03-29T07:22:50;10.40;99.90
15481;DHT22;7842;50.904;6.670;2024-03-29T07:25:16;10.50;99.90
15481;DHT22;7842;50.904;6.670;2024-03-29T07:27:42;10.60;99.90
15481;DHT22;7842;50.904;6.670;2024-03-29T07:30:07;10.60;99.90
15481;DHT22;7842;50.904;6.670;2024-03-29T07:32:33;10.60;99.90
15481;DHT22;7842;50.904;6.670;2024-03-29T07:34:59;10.60;99.90
15481;DHT22;7842;50.904;6.670;2024-03-29T07:37:25;10.70;99.90
15481;DHT22;7842;50.904;6.670;2024-03-29T07:39:51;10.70;99.90
15481;DHT22;7842;50.904;6.670;2024-03-29T07:42:17;10.80;99.90
15481;DHT22;7842;50.904;6.670;2024-03-29T07:44:44;10.80;99.90
15481;DHT22;7842;50.904;6.670;2024-03-29T07:47:10;10.90;99.90
15481;DHT22;7842;50.904;6.670;2024-03-29T07:49:38;10.90;99.90
15481;DHT22;7842;50.904;6.670;2024-03-29T07:52:04;10.90;99.90
15481;DHT22;7842;50.904;6.670;2024-03-29T07:54:31;11.00;99.90
15481;DHT22;7842;50.904;6.670;2024-03-29T07:56:57;11.00;99.90
15481;DHT22;7842;50.904;6.670;2024-03-29T07:59:23;11.00;99.90
15481;DHT22;7842;50.904;6.670;2024-03-29T08:01:48;11.10;99.90
15481;DHT22;7842;50.904;6.670;2024-03-29T08:04:14;11.10;99.90
15481;DHT22;7842;50.904;6.670;2024-03-29T08:06:39;11.20;99.90
15481;DHT22;7842;50.904;6.670;2024-03-29T08:09:05;11.30;99.90
15481;DHT22;7842;50.904;6.670;2024-03-29T08:11:31;11.40;99.90
15481;DHT22;7842;50.904;6.670;2024-03-29T08:13:56;11.40;99.90
15481;DHT22;7842;50.904;6.670;2024-03-29T08:16:22;11.50;99.90
15481;DHT22;7842;50.904;6.670;2024-03-29T08:18:48;11.50;99.90
15481;DHT22;7842;50.904;6.670;2024-03-29T08:21:14;11.50;99.90
15481;DHT22;7842;50.904;6.670;2024-03-29T08:23:40;11.50;99.90
15481;DHT22;7842;50.904;6.670;2024-03-29T08:26:07;11.50;99.90
15481;DHT22;7842;50.904;6.670;2024-03-29T08:28:33;11.60;99.90
15481;DHT22;7842;50.904;6.670;2024-03-29T08:31:00;11.70;99.90
15481;DHT22;7842;50.904;6.670;2024-03-29T08:33:26;11.80;99.90
15481;DHT22;7842;50.904;6.670;2024-03-29T08:35:52;12.10;99.90
15481;DHT22;7842;50.904;6.670;2024-03-29T08:38:17;12.30;99.90
15481;DHT22;7842;50.904;6.670;2024-03-29T08:40:43;12.40;99.90
15481;DHT22;7842;50.904;6.670;2024-03-29T08:43:11;12.50;99.90
15481;DHT22;7842;50.904;6.670;2024-03-29T08:45:37;12.70;99.90
15481;DHT22;7842;50.904;6.670;2024-03-29T08:48:07;12.80;99.90
15481;DHT22;7842;50.904;6.670;2024-03-29T08:50:34;12.80;99.90
15481;DHT22;7842;50.904;6.670;2024-03-29T08:53:01;12.90;99.90
15481;DHT22;7842;50.904;6.670;2024-03-29T08:55:26;13.10;99.90
15481;DHT22;7842;50.904;6.670;2024-03-29T08:57:52;13.20;99.90
15481;DHT22;7842;50.904;6.670;2024-03-29T09:00:18;13.30;99.90
15481;DHT22;7842;50.904;6.670;2024-03-29T09:02:45;13.40;99.90
15481;DHT22;7842;50.904;6.670;2024-03-29T09:05:11;13.50;99.90
15481;DHT22;7842;50.904;6.670;2024-03-29T09:07:36;13.60;99.90
15481;DHT22;7842;50.904;6.670;2024-03-29T09:10:04;13.70;99.90
15481;DHT22;7842;50.904;6.670;2024-03-29T09:12:29;13.80;99.90
15481;DHT22;7842;50.904;6.670;2024-03-29T09:14:55;13.80;99.90
15481;DHT22;7842;50.904;6.670;2024-03-29T09:17:21;14.00;99.90
15481;DHT22;7842;50.904;6.670;2024-03-29T09:19:50;14.20;99.90
15481;DHT22;7842;50.904;6.670;2024-03-29T09:22:17;14.10;99.90
15481;DHT22;7842;50.904;6.670;2024-03-29T09:24:42;14.10;99.90
15481;DHT22;7842;50.904;6.670;2024-03-29T09:27:08;14.10;99.90
15481;DHT22;7842;50.904;6.670;2024-03-29T09:29:34;14.30;99.90
15481;DHT22;7842;50.904;6.670;2024-03-29T09:31:59;14.40;99.90
15481;DHT22;7842;50.904;6.670;2024-03-29T09:34:30;14.40;99.90
15481;DHT22;7842;50.904;6.670;2024-03-29T09:36:56;14.50;99.90
15481;DHT22;7842;50.904;6.670;2024-03-29T09:39:23;14.50;99.90
15481;DHT22;7842;50.904;6.670;2024-03-29T09:41:49;14.50;99.90
15481;DHT22;7842;50.904;6.670;2024-03-29T09:44:16;14.50;99.90
15481;DHT22;7842;50.904;6.670;2024-03-29T09:46:43;14.70;99.90
15481;DHT22;7842;50.904;6.670;2024-03-29T09:49:09;14.60;99.90
15481;DHT22;7842;50.904;6.670;2024-03-29T09:51:37;14.70;99.90
15481;DHT22;7842;50.904;6.670;2024-03-29T09:54:05;14.90;99.90
15481;DHT22;7842;50.904;6.670;2024-03-29T09:56:33;14.90;99.90
15481;DHT22;7842;50.904;6.670;2024-03-29T09:59:37;14.90;99.90
15481;DHT22;7842;50.904;6.670;2024-03-29T10:02:14;14.80;99.90
15481;DHT22;7842;50.904;6.670;2024-03-29T10:04:41;14.90;99.90
15481;DHT22;7842;50.904;6.670;2024-03-29T10:07:07;15.10;99.90
15481;DHT22;7842;50.904;6.670;2024-03-29T10:09:36;15.10;99.90
15481;DHT22;7842;50.904;6.670;2024-03-29T10:12:01;15.10;99.90
15481;DHT22;7842;50.904;6.670;2024-03-29T10:14:30;15.10;99.90
15481;DHT22;7842;50.904;6.670;2024-03-29T10:16:58;15.10;99.90
15481;DHT22;7842;50.904;6.670;2024-03-29T10:19:23;15.20;99.90
15481;DHT22;7842;50.904;6.670;2024-03-29T10:21:49;15.10;99.90
15481;DHT22;7842;50.904;6.670;2024-03-29T10:24:15;15.20;99.90
15481;DHT22;7842;50.904;6.670;2024-03-29T10:26:43;15.30;99.90
15481;DHT22;7842;50.904;6.670;2024-03-29T10:29:09;15.30;99.90
15481;DHT22;7842;50.904;6.670;2024-03-29T10:31:35;15.40;99.90
15481;DHT22;7842;50.904;6.670;2024-03-29T10:34:05;15.40;99.90
15481;DHT22;7842;50.904;6.670;2024-03-29T10:36:34;15.40;99.90
15481;DHT22;7842;50.904;6.670;2024-03-29T10:39:02;15.40;99.90
15481;DHT22;7842;50.904;6.670;2024-03-29T10:41:43;15.40;99.90
15481;DHT22;7842;50.904;6.670;2024-03-29T10:44:10;15.30;99.90
15481;DHT22;7842;50.904;6.670;2024-03-29T10:46:40;15.30;99.90
15481;DHT22;7842;50.904;6.670;2024-03-29T10:49:08;15.30;99.90
15481;DHT22;7842;50.904;6.670;2024-03-29T10:51:39;15.50;99.90
15481;DHT22;7842;50.904;6.670;2024-03-29T10:54:08;15.40;99.90
15481;DHT22;7842;50.904;6.670;2024-03-29T10:56:35;15.50;99.90
15481;DHT22;7842;50.904;6.670;2024-03-29T10:59:29;15.60;99.90
15481;DHT22;7842;50.904;6.670;2024-03-29T11:02:00;15.70;99.90
15481;DHT22;7842;50.904;6.670;2024-03-29T11:04:34;15.80;99.90
15481;DHT22;7842;50.904;6.670;2024-03-29T11:07:06;15.90;99.90
15481;DHT22;7842;50.904;6.670;2024-03-29T11:09:34;16.10;99.90
15481;DHT22;7842;50.904;6.670;2024-03-29T11:12:01;16.10;99.90
15481;DHT22;7842;50.904;6.670;2024-03-29T11:14:37;16.20;99.90
15481;DHT22;7842;50.904;6.670;2024-03-29T11:17:05;16.30;99.90
15481;DHT22;7842;50.904;6.670;2024-03-29T11:19:31;16.30;99.90
15481;DHT22;7842;50.904;6.670;2024-03-29T11:21:57;16.10;99.90
15481;DHT22;7842;50.904;6.670;2024-03-29T11:24:23;15.90;99.90
15481;DHT22;7842;50.904;6.670;2024-03-29T11:26:49;16.00;99.90
15481;DHT22;7842;50.904;6.670;2024-03-29T11:29:23;16.10;99.90
15481;DHT22;7842;50.904;6.670;2024-03-29T11:31:56;16.00;99.90
15481;DHT22;7842;50.904;6.670;2024-03-29T11:34:22;16.00;99.90
15481;DHT22;7842;50.904;6.670;2024-03-29T11:36:48;16.00;99.90
15481;DHT22;7842;50.904;6.670;2024-03-29T11:39:23;16.00;99.90
15481;DHT22;7842;50.904;6.670;2024-03-29T11:41:50;16.00;99.90
15481;DHT22;7842;50.904;6.670;2024-03-29T11:44:16;16.00;99.90
15481;DHT22;7842;50.904;6.670;2024-03-29T11:46:43;16.00;99.90
15481;DHT22;7842;50.904;6.670;2024-03-29T11:49:09;15.90;99.90
15481;DHT22;7842;50.904;6.670;2024-03-29T11:51:35;16.00;99.90
15481;DHT22;7842;50.904;6.670;2024-03-29T11:54:01;16.20;99.90
15481;DHT22;7842;50.904;6.670;2024-03-29T11:56:28;16.20;99.90
15481;DHT22;7842;50.904;6.670;2024-03-29T11:58:53;16.00;99.90
15481;DHT22;7842;50.904;6.670;2024-03-29T12:01:25;16.20;99.90
15481;DHT22;7842;50.904;6.670;2024-03-29T12:03:51;16.00;99.90
15481;DHT22;7842;50.904;6.670;2024-03-29T12:06:17;16.00;99.90
15481;DHT22;7842;50.904;6.670;2024-03-29T12:08:44;16.00;99.90
15481;DHT22;7842;50.904;6.670;2024-03-29T12:11:10;15.80;99.90
15481;DHT22;7842;50.904;6.670;2024-03-29T12:13:36;15.70;99.90
15481;DHT22;7842;50.904;6.670;2024-03-29T12:16:02;15.60;99.90
15481;DHT22;7842;50.904;6.670;2024-03-29T12:18:29;15.80;99.90
15481;DHT22;7842;50.904;6.670;2024-03-29T12:20:57;15.80;99.90
15481;DHT22;7842;50.904;6.670;2024-03-29T12:23:23;16.00;99.90
15481;DHT22;7842;50.904;6.670;2024-03-29T12:25:51;16.00;99.90
15481;DHT22;7842;50.904;6.670;2024-03-29T12:28:18;16.10;99.90
15481;DHT22;7842;50.904;6.670;2024-03-29T12:30:46;16.10;99.90
15481;DHT22;7842;50.904;6.670;2024-03-29T12:33:13;16.10;99.90
15481;DHT22;7842;50.904;6.670;2024-03-29T12:35:42;16.10;99.90
15481;DHT22;7842;50.904;6.670;2024-03-29T12:38:11;16.00;99.90
15481;DHT22;7842;50.904;6.670;2024-03-29T12:40:37;16.00;99.90
15481;DHT22;7842;50.904;6.670;2024-03-29T12:43:07;15.90;99.90
15481;DHT22;7842;50.904;6.670;2024-03-29T12:45:34;16.00;99.90
15481;DHT22;7842;50.904;6.670;2024-03-29T12:48:00;15.80;99.90
15481;DHT22;7842;50.904;6.670;2024-03-29T12:50:27;15.70;99.90
15481;DHT22;7842;50.904;6.670;2024-03-29T12:52:58;15.60;99.90
15481;DHT22;7842;50.904;6.670;2024-03-29T12:55:25;15.60;99.90
15481;DHT22;7842;50.904;6.670;2024-03-29T12:57:54;15.70;99.90
15481;DHT22;7842;50.904;6.670;2024-03-29T13:00:20;15.90;99.90
15481;DHT22;7842;50.904;6.670;2024-03-29T13:02:46;16.00;99.90
15481;DHT22;7842;50.904;6.670;2024-03-29T13:05:11;16.10;99.90
15481;DHT22;7842;50.904;6.670;2024-03-29T13:07:37;16.20;99.90
15481;DHT22;7842;50.904;6.670;2024-03-29T13:10:03;16.20;99.90
15481;DHT22;7842;50.904;6.670;2024-03-29T13:12:36;16.50;99.90
15481;DHT22;7842;50.904;6.670;2024-03-29T13:15:03;16.70;99.90
15481;DHT22;7842;50.904;6.670;2024-03-29T13:17:32;16.80;99.90
15481;DHT22;7842;50.904;6.670;2024-03-29T13:19:57;17.10;99.90
15481;DHT22;7842;50.904;6.670;2024-03-29T13:22:23;17.20;99.90
15481;DHT22;7842;50.904;6.670;2024-03-29T13:24:49;17.10;99.90
15481;DHT22;7842;50.904;6.670;2024-03-29T13:27:15;16.90;99.90
15481;DHT22;7842;50.904;6.670;2024-03-29T13:29:42;16.90;99.90
15481;DHT22;7842;50.904;6.670;2024-03-29T13:32:07;16.90;99.90
15481;DHT22;7842;50.904;6.670;2024-03-29T13:34:33;16.90;99.90
15481;DHT22;7842;50.904;6.670;2024-03-29T13:36:59;16.80;99.90
15481;DHT22;7842;50.904;6.670;2024-03-29T13:39:24;16.70;99.90
15481;DHT22;7842;50.904;6.670;2024-03-29T13:41:50;16.80;99.90
15481;DHT22;7842;50.904;6.670;2024-03-29T13:44:16;17.00;99.90
15481;DHT22;7842;50.904;6.670;2024-03-29T13:46:43;17.10;99.90
15481;DHT22;7842;50.904;6.670;2024-03-29T13:49:09;17.20;99.90
15481;DHT22;7842;50.904;6.670;2024-03-29T13:51:35;17.20;99.90
15481;DHT22;7842;50.904;6.670;2024-03-29T13:54:01;17.10;99.90
15481;DHT22;7842;50.904;6.670;2024-03-29T13:56:27;17.00;99.90
15481;DHT22;7842;50.904;6.670;2024-03-29T13:58:52;16.90;99.90
15481;DHT22;7842;50.904;6.670;2024-03-29T14:01:18;16.80;99.90
15481;DHT22;7842;50.904;6.670;2024-03-29T14:03:43;16.80;99.90
15481;DHT22;7842;50.904;6.670;2024-03-29T14:06:10;16.80;99.90
15481;DHT22;7842;50.904;6.670;2024-03-29T14:08:35;16.80;99.90
15481;DHT22;7842;50.904;6.670;2024-03-29T14:11:01;16.90;99.90
15481;DHT22;7842;50.904;6.670;2024-03-29T14:13:27;16.80;99.90
15481;DHT22;7842;50.904;6.670;2024-03-29T14:15:54;16.90;99.90
15481;DHT22;7842;50.904;6.670;2024-03-29T14:18:20;16.80;99.90
15481;DHT22;7842;50.904;6.670;2024-03-29T14:20:46;16.80;99.90
15481;DHT22;7842;50.904;6.670;2024-03-29T14:23:12;16.60;99.90
15481;DHT22;7842;50.904;6.670;2024-03-29T14:25:40;16.50;99.90
15481;DHT22;7842;50.904;6.670;2024-03-29T14:28:06;16.40;99.90
15481;DHT22;7842;50.904;6.670;2024-03-29T14:30:32;16.30;99.90
15481;DHT22;7842;50.904;6.670;2024-03-29T14:32:58;16.20;99.90
15481;DHT22;7842;50.904;6.670;2024-03-29T14:35:28;16.40;99.90
15481;DHT22;7842;50.904;6.670;2024-03-29T14:37:56;16.20;99.90
15481;DHT22;7842;50.904;6.670;2024-03-29T14:40:22;16.20;99.90
15481;DHT22;7842;50.904;6.670;2024-03-29T14:42:47;16.10;99.90
15481;DHT22;7842;50.904;6.670;2024-03-29T14:45:13;16.10;99.90
15481;DHT22;7842;50.904;6.670;2024-03-29T14:47:39;15.90;99.90
15481;DHT22;7842;50.904;6.670;2024-03-29T14:50:05;15.90;99.90
15481;DHT22;7842;50.904;6.670;2024-03-29T14:52:36;16.00;99.90
15481;DHT22;7842;50.904;6.670;2024-03-29T14:55:03;16.00;99.90
15481;DHT22;7842;50.904;6.670;2024-03-29T14:57:29;16.20;99.90
15481;DHT22;7842;50.904;6.670;2024-03-29T14:59:55;16.10;99.90
15481;DHT22;7842;50.904;6.670;2024-03-29T15:02:20;16.10;99.90
15481;DHT22;7842;50.904;6.670;2024-03-29T15:04:46;16.00;99.90
15481;DHT22;7842;50.904;6.670;2024-03-29T15:07:12;16.30;99.90
15481;DHT22;7842;50.904;6.670;2024-03-29T15:09:37;16.50;99.90
15481;DHT22;7842;50.904;6.670;2024-03-29T15:12:03;16.60;99.90
15481;DHT22;7842;50.904;6.670;2024-03-29T15:14:30;16.60;99.90
15481;DHT22;7842;50.904;6.670;2024-03-29T15:16:55;16.80;99.90
15481;DHT22;7842;50.904;6.670;2024-03-29T15:19:22;16.80;99.90
15481;DHT22;7842;50.904;6.670;2024-03-29T15:21:47;16.70;99.90
15481;DHT22;7842;50.904;6.670;2024-03-29T15:24:14;16.50;99.90
15481;DHT22;7842;50.904;6.670;2024-03-29T15:26:41;16.40;99.90
15481;DHT22;7842;50.904;6.670;2024-03-29T15:29:06;16.30;99.90
15481;DHT22;7842;50.904;6.670;2024-03-29T15:31:41;16.20;99.90
15481;DHT22;7842;50.904;6.670;2024-03-29T15:34:07;16.00;99.90
15481;DHT22;7842;50.904;6.670;2024-03-29T15:36:34;16.00;99.90
15481;DHT22;7842;50.904;6.670;2024-03-29T15:39:01;15.80;99.90
15481;DHT22;7842;50.904;6.670;2024-03-29T15:41:36;15.80;99.90
15481;DHT22;7842;50.904;6.670;2024-03-29T15:44:06;15.70;99.90
15481;DHT22;7842;50.904;6.670;2024-03-29T15:46:33;15.70;99.90
15481;DHT22;7842;50.904;6.670;2024-03-29T15:48:59;15.80;99.90